createdAt,value
2022-10-28T00:00:37.460Z,7.82
2022-10-28T00:03:04.407Z,7.25
2022-10-28T00:05:34.295Z,6.70
2022-10-28T00:08:00.968Z,7.22
2022-10-28T00:10:27.692Z,7.15
2022-10-28T00:12:54.369Z,7.20
2022-10-28T00:15:21.078Z,7.28
2022-10-28T00:17:47.815Z,7.45
2022-10-28T00:20:15.844Z,7.25
2022-10-28T00:22:42.923Z,8.05
2022-10-28T00:25:10.149Z,7.50
2022-10-28T00:27:36.952Z,8.05
2022-10-28T00:30:04.339Z,6.93
2022-10-28T00:32:31.672Z,7.13
2022-10-28T00:34:58.689Z,7.90
2022-10-28T00:37:25.467Z,7.90
2022-10-28T00:39:52.166Z,7.03
2022-10-28T00:42:22.121Z,7.50
2022-10-28T00:45:03.438Z,7.35
2022-10-28T00:47:55.765Z,7.45
2022-10-28T00:50:45.074Z,7.45
2022-10-28T00:53:19.400Z,7.35
2022-10-28T00:55:47.486Z,6.97
2022-10-28T00:58:15.652Z,7.93
2022-10-28T01:00:42.436Z,8.63
2022-10-28T01:03:09.777Z,7.43
2022-10-28T01:05:39.961Z,7.63
2022-10-28T01:08:06.843Z,8.00
2022-10-28T01:10:46.792Z,7.07
2022-10-28T01:13:37.858Z,8.18
2022-10-28T01:16:16.373Z,6.97
2022-10-28T01:18:58.256Z,8.45
2022-10-28T01:22:05.823Z,7.35
2022-10-28T01:24:38.173Z,7.43
2022-10-28T01:27:22.955Z,7.72
2022-10-28T01:29:55.744Z,7.10
2022-10-28T01:32:28.653Z,7.45
2022-10-28T01:35:12.829Z,7.78
2022-10-28T01:37:49.402Z,7.95
2022-10-28T01:40:22.741Z,7.50
2022-10-28T01:42:55.501Z,7.85
2022-10-28T01:45:38.368Z,7.90
2022-10-28T01:48:32.230Z,8.55
2022-10-28T01:51:09.282Z,7.97
2022-10-28T01:53:41.720Z,7.35
2022-10-28T01:56:13.781Z,9.00
2022-10-28T01:58:41.445Z,7.55
2022-10-28T02:01:10.199Z,7.40
2022-10-28T02:03:37.179Z,7.97
2022-10-28T02:06:08.378Z,7.65
2022-10-28T02:08:53.066Z,7.78
2022-10-28T02:11:34.510Z,8.00
2022-10-28T02:14:03.930Z,8.07
2022-10-28T02:16:50.861Z,7.82
2022-10-28T02:19:23.678Z,7.70
2022-10-28T02:22:13.867Z,8.27
2022-10-28T02:24:56.024Z,7.60
2022-10-28T02:27:47.711Z,7.78
2022-10-28T02:30:17.546Z,7.15
2022-10-28T02:33:01.058Z,7.63
2022-10-28T02:35:41.001Z,7.55
2022-10-28T02:38:14.489Z,8.88
2022-10-28T02:40:44.390Z,7.97
2022-10-28T02:43:14.582Z,7.68
2022-10-28T02:45:44.896Z,7.90
2022-10-28T02:48:13.809Z,7.93
2022-10-28T02:50:47.828Z,7.57
2022-10-28T02:53:22.787Z,7.82
2022-10-28T02:55:54.206Z,7.38
2022-10-28T02:58:21.925Z,7.53
2022-10-28T03:00:49.857Z,7.15
2022-10-28T03:03:16.980Z,8.10
2022-10-28T03:05:43.992Z,7.28
2022-10-28T03:08:10.698Z,8.52
2022-10-28T03:10:37.426Z,7.68
2022-10-28T03:13:04.056Z,8.55
2022-10-28T03:15:30.785Z,6.95
2022-10-28T03:17:57.461Z,7.50
2022-10-28T03:20:24.226Z,9.00
2022-10-28T03:22:51.199Z,9.00
2022-10-28T03:25:18.051Z,8.30
2022-10-28T03:27:44.776Z,8.15
2022-10-28T03:30:11.602Z,8.13
2022-10-28T03:32:41.924Z,7.00
2022-10-28T03:35:08.834Z,7.90
2022-10-28T03:37:35.734Z,8.20
2022-10-28T03:40:07.651Z,9.13
2022-10-28T03:42:36.456Z,8.07
2022-10-28T03:45:06.154Z,8.13
2022-10-28T03:47:33.973Z,7.32
2022-10-28T03:50:00.926Z,8.05
2022-10-28T03:52:27.597Z,7.90
2022-10-28T03:54:54.307Z,7.60
2022-10-28T03:57:21.053Z,8.25
2022-10-28T03:59:47.687Z,7.65
2022-10-28T04:02:15.751Z,7.75
2022-10-28T04:04:42.570Z,7.53
2022-10-28T04:07:09.233Z,7.90
2022-10-28T04:09:35.994Z,8.00
2022-10-28T04:12:02.828Z,8.85
2022-10-28T04:14:29.610Z,7.55
2022-10-28T04:16:56.305Z,7.20
2022-10-28T04:19:23.062Z,7.88
2022-10-28T04:21:49.929Z,7.97
2022-10-28T04:24:16.578Z,8.07
2022-10-28T04:26:43.256Z,7.47
2022-10-28T04:29:09.930Z,7.47
2022-10-28T04:31:36.583Z,6.70
2022-10-28T04:34:03.297Z,7.72
2022-10-28T04:36:30.154Z,7.00
2022-10-28T04:38:56.859Z,7.30
2022-10-28T04:41:23.582Z,8.15
2022-10-28T04:43:50.274Z,8.40
2022-10-28T04:46:16.959Z,7.25
2022-10-28T04:48:43.710Z,8.02
2022-10-28T04:51:10.433Z,7.63
2022-10-28T04:53:37.118Z,7.35
2022-10-28T04:56:04.067Z,7.50
2022-10-28T04:58:30.774Z,8.32
2022-10-28T05:00:57.634Z,8.45
2022-10-28T05:03:24.629Z,8.63
2022-10-28T05:05:52.462Z,8.65
2022-10-28T05:08:19.208Z,7.90
2022-10-28T05:10:49.951Z,8.40
2022-10-28T05:15:43.748Z,8.95
2022-10-28T05:18:10.808Z,9.20
2022-10-28T05:20:37.518Z,7.68
2022-10-28T05:23:04.388Z,7.85
2022-10-28T05:25:31.159Z,8.45
2022-10-28T05:28:00.908Z,8.63
2022-10-28T05:30:28.642Z,7.70
2022-10-28T05:33:02.539Z,7.32
2022-10-28T05:35:30.716Z,8.88
2022-10-28T05:37:58.441Z,7.78
2022-10-28T05:40:25.186Z,8.65
2022-10-28T05:42:52.258Z,7.53
2022-10-28T05:45:19.277Z,8.05
2022-10-28T05:47:47.626Z,8.30
2022-10-28T05:50:17.029Z,8.65
2022-10-28T05:52:52.253Z,7.90
2022-10-28T05:55:21.224Z,7.60
2022-10-28T05:57:50.488Z,7.78
2022-10-28T06:00:19.896Z,9.13
2022-10-28T06:02:46.786Z,8.43
2022-10-28T06:05:13.914Z,8.70
2022-10-28T06:07:41.399Z,7.30
2022-10-28T06:10:09.502Z,9.07
2022-10-28T06:12:34.715Z,8.18
2022-10-28T06:15:03.529Z,8.57
2022-10-28T06:17:30.206Z,8.63
2022-10-28T06:19:56.931Z,8.10
2022-10-28T06:22:23.697Z,7.97
2022-10-28T06:24:50.356Z,9.07
2022-10-28T06:27:17.078Z,8.70
2022-10-28T06:29:43.887Z,8.18
2022-10-28T06:32:10.593Z,8.32
2022-10-28T06:34:37.816Z,8.80
2022-10-28T06:37:09.190Z,7.45
2022-10-28T06:39:38.212Z,8.93
2022-10-28T06:42:05.150Z,8.30
2022-10-28T06:44:32.000Z,8.15
2022-10-28T06:47:00.249Z,8.13
2022-10-28T06:49:29.516Z,8.45
2022-10-28T06:51:56.187Z,8.20
2022-10-28T06:54:22.950Z,8.95
2022-10-28T06:56:49.683Z,7.50
2022-10-28T06:59:16.548Z,7.93
2022-10-28T07:01:43.647Z,9.15
2022-10-28T07:04:13.855Z,9.57
2022-10-28T07:06:41.243Z,8.57
2022-10-28T07:09:09.357Z,9.10
2022-10-28T07:11:36.024Z,7.75
2022-10-28T07:14:02.843Z,8.40
2022-10-28T07:16:29.636Z,7.88
2022-10-28T07:18:56.301Z,7.63
2022-10-28T07:21:28.329Z,8.52
2022-10-28T07:23:56.420Z,9.50
2022-10-28T07:26:23.610Z,7.70
2022-10-28T07:28:50.615Z,8.23
2022-10-28T07:31:17.625Z,7.78
2022-10-28T07:33:44.570Z,8.77
2022-10-28T07:36:11.699Z,8.18
2022-10-28T07:38:38.536Z,7.57
2022-10-28T07:41:07.261Z,8.20
2022-10-28T07:43:38.417Z,8.30
2022-10-28T07:46:07.175Z,8.40
2022-10-28T07:48:35.508Z,7.55
2022-10-28T07:51:04.281Z,8.68
2022-10-28T07:53:31.663Z,8.50
2022-10-28T07:56:00.189Z,8.05
2022-10-28T07:58:27.282Z,7.60
2022-10-28T08:00:54.156Z,7.57
2022-10-28T08:03:21.488Z,8.68
2022-10-28T08:05:48.259Z,8.40
2022-10-28T08:08:14.976Z,20.42
2022-10-28T08:10:41.784Z,10.82
2022-10-28T08:13:08.539Z,7.82
2022-10-28T08:15:35.226Z,8.65
2022-10-28T08:18:01.980Z,7.90
2022-10-28T08:20:28.693Z,7.63
2022-10-28T08:22:55.667Z,7.90
2022-10-28T08:25:22.644Z,7.10
2022-10-28T08:27:49.370Z,8.20
2022-10-28T08:30:16.204Z,7.47
2022-10-28T08:32:42.961Z,8.63
2022-10-28T08:35:09.687Z,8.63
2022-10-28T08:37:36.473Z,8.50
2022-10-28T08:40:03.453Z,8.52
2022-10-28T08:42:49.376Z,7.95
2022-10-28T08:45:48.536Z,8.20
2022-10-28T08:48:33.520Z,8.23
2022-10-28T08:51:25.256Z,11.52
2022-10-28T08:54:06.847Z,8.23
2022-10-28T08:56:48.425Z,8.15
2022-10-28T08:59:25.790Z,8.70
2022-10-28T09:01:58.152Z,8.10
2022-10-28T09:04:39.378Z,7.75
2022-10-28T09:07:10.996Z,7.78
2022-10-28T09:09:38.862Z,7.60
2022-10-28T09:12:11.382Z,7.30
2022-10-28T09:14:59.301Z,7.90
2022-10-28T09:17:38.019Z,7.00
2022-10-28T09:20:18.300Z,7.07
2022-10-28T09:22:58.612Z,7.32
2022-10-28T09:25:50.236Z,7.55
2022-10-28T09:28:36.315Z,7.90
2022-10-28T09:31:38.129Z,8.20
2022-10-28T09:34:17.598Z,7.95
2022-10-28T09:37:08.552Z,7.60
2022-10-28T09:39:46.871Z,7.00
2022-10-28T09:42:19.920Z,7.22
2022-10-28T09:44:54.737Z,7.13
2022-10-28T09:47:29.716Z,7.80
2022-10-28T09:50:01.662Z,7.65
2022-10-28T09:52:37.099Z,6.85
2022-10-28T09:55:14.861Z,7.50
2022-10-28T09:57:41.627Z,7.85
2022-10-28T10:00:13.830Z,7.82
2022-10-28T10:02:41.033Z,7.70
2022-10-28T10:05:16.927Z,7.85
2022-10-28T10:07:58.090Z,7.93
2022-10-28T10:10:28.827Z,7.40
2022-10-28T10:15:37.337Z,7.10
2022-10-28T10:18:06.907Z,7.95
2022-10-28T10:20:51.939Z,8.38
2022-10-28T10:23:30.735Z,7.28
2022-10-28T10:26:08.092Z,7.93
2022-10-28T10:28:43.645Z,7.85
2022-10-28T10:31:20.124Z,7.68
2022-10-28T10:33:51.165Z,8.13
2022-10-28T10:36:23.246Z,7.68
2022-10-28T10:38:55.373Z,6.85
2022-10-28T10:41:43.842Z,7.03
2022-10-28T10:44:22.641Z,7.70
2022-10-28T10:47:05.913Z,7.88
2022-10-28T10:49:36.844Z,8.05
2022-10-28T10:52:07.680Z,7.28
2022-10-28T10:54:37.365Z,8.35
2022-10-28T10:57:23.051Z,7.90
2022-10-28T10:59:52.701Z,7.70
2022-10-28T11:02:31.315Z,7.20
2022-10-28T11:05:03.319Z,8.32
2022-10-28T11:07:32.155Z,7.35
2022-10-28T11:09:59.415Z,7.43
2022-10-28T11:12:36.680Z,7.93
2022-10-28T11:15:25.667Z,7.88
2022-10-28T11:18:25.041Z,6.85
2022-10-28T11:21:16.177Z,7.78
2022-10-28T11:24:01.025Z,7.85
2022-10-28T11:26:28.411Z,7.13
2022-10-28T11:29:16.072Z,7.25
2022-10-28T11:32:04.304Z,7.72
2022-10-28T11:34:55.172Z,7.72
2022-10-28T11:37:33.884Z,8.80
2022-10-28T11:40:19.008Z,7.05
2022-10-28T11:43:30.681Z,7.60
2022-10-28T11:46:29.348Z,8.38
2022-10-28T11:49:20.745Z,8.07
2022-10-28T11:51:55.841Z,7.38
2022-10-28T11:54:31.375Z,7.50
2022-10-28T11:57:13.221Z,7.28
2022-10-28T12:00:04.006Z,8.55
2022-10-28T12:02:37.012Z,7.90
2022-10-28T12:05:15.674Z,8.15
2022-10-28T12:08:09.141Z,8.00
2022-10-28T12:10:48.027Z,8.68
2022-10-28T12:13:48.094Z,9.40
2022-10-28T12:16:40.954Z,8.40
2022-10-28T12:19:14.231Z,9.15
2022-10-28T12:21:47.590Z,7.90
2022-10-28T12:24:19.388Z,7.40
2022-10-28T12:26:50.243Z,7.65
2022-10-28T12:29:33.740Z,7.85
2022-10-28T12:32:03.081Z,7.95
2022-10-28T12:37:12.420Z,7.88
2022-10-28T12:39:47.708Z,7.65
2022-10-28T12:42:31.253Z,8.15
2022-10-28T12:45:00.630Z,7.63
2022-10-28T12:47:44.916Z,7.57
2022-10-28T12:50:41.036Z,7.57
2022-10-28T12:53:39.908Z,7.53
2022-10-28T12:56:14.356Z,6.80
2022-10-28T12:59:20.277Z,7.43
2022-10-28T13:01:49.511Z,8.30
2022-10-28T13:04:16.524Z,7.35
2022-10-28T13:06:54.986Z,8.55
2022-10-28T13:09:39.155Z,6.82
2022-10-28T13:12:43.772Z,7.68
2022-10-28T13:15:37.555Z,7.32
2022-10-28T13:18:33.543Z,6.88
2022-10-28T13:21:15.182Z,7.50
2022-10-28T13:23:53.786Z,8.02
2022-10-28T13:26:43.412Z,8.10
2022-10-28T13:29:24.156Z,7.85
2022-10-28T13:31:52.329Z,7.47
2022-10-28T13:34:22.904Z,7.15
2022-10-28T13:36:59.504Z,8.50
2022-10-28T13:39:42.784Z,8.48
2022-10-28T13:42:16.144Z,7.70
2022-10-28T13:45:01.752Z,7.88
2022-10-28T13:47:30.101Z,7.20
2022-10-28T13:50:08.988Z,7.68
2022-10-28T13:52:41.400Z,8.18
2022-10-28T13:55:25.752Z,8.02
2022-10-28T13:58:00.962Z,9.73
2022-10-28T14:03:03.433Z,8.68
2022-10-28T14:05:57.002Z,7.40
2022-10-28T14:08:28.438Z,8.25
2022-10-28T14:11:21.934Z,8.07
2022-10-28T14:13:53.445Z,7.10
2022-10-28T14:16:25.044Z,7.65
2022-10-28T14:19:02.033Z,7.97
2022-10-28T14:22:02.349Z,7.65
2022-10-28T14:24:43.738Z,7.80
2022-10-28T14:27:13.129Z,7.75
2022-10-28T14:29:48.444Z,7.82
2022-10-28T14:32:33.694Z,8.35
2022-10-28T14:35:11.066Z,9.00
2022-10-28T14:38:11.308Z,8.45
2022-10-28T14:40:54.609Z,7.82
2022-10-28T14:43:51.296Z,7.10
2022-10-28T14:47:00.403Z,8.10
2022-10-28T14:49:32.763Z,8.88
2022-10-28T14:52:19.238Z,8.55
2022-10-28T14:54:55.893Z,8.63
2022-10-28T14:57:34.137Z,8.40
2022-10-28T15:00:07.067Z,8.15
2022-10-28T15:02:37.401Z,8.57
2022-10-28T15:07:41.238Z,9.05
2022-10-28T15:10:19.395Z,8.57
2022-10-28T15:12:51.358Z,8.60
2022-10-28T15:15:23.828Z,9.40
2022-10-28T15:17:50.904Z,9.02
2022-10-28T15:20:24.479Z,9.10
2022-10-28T15:22:52.756Z,8.15
2022-10-28T15:25:21.971Z,8.00
2022-10-28T15:27:52.288Z,9.38
2022-10-28T15:35:47.231Z,8.27
2022-10-28T15:38:29.306Z,8.05
2022-10-28T15:40:56.945Z,8.30
2022-10-28T15:43:31.281Z,8.48
2022-10-28T15:46:16.110Z,8.27
2022-10-28T15:48:42.982Z,9.35
2022-10-28T15:51:19.991Z,8.07
2022-10-28T15:53:59.719Z,8.50
2022-10-28T15:56:27.722Z,8.40
2022-10-28T15:59:19.642Z,8.45
2022-10-28T16:01:46.518Z,9.23
2022-10-28T16:04:22.293Z,9.20
2022-10-28T16:06:51.939Z,8.55
2022-10-28T16:09:20.616Z,8.80
2022-10-28T16:11:51.140Z,9.82
2022-10-28T16:17:27.081Z,7.78
2022-10-28T16:20:04.406Z,8.80
2022-10-28T16:22:34.321Z,9.05
2022-10-28T16:25:01.034Z,9.05
2022-10-28T16:27:31.767Z,9.02
2022-10-28T16:29:58.982Z,8.57
2022-10-28T16:32:28.590Z,8.68
2022-10-28T16:35:01.293Z,8.68
2022-10-28T16:37:31.514Z,9.27
2022-10-28T16:39:58.387Z,9.63
2022-10-28T16:42:25.621Z,8.48
2022-10-28T16:44:52.789Z,9.02
2022-10-28T16:47:21.561Z,8.50
2022-10-28T16:49:54.500Z,9.75
2022-10-28T16:52:29.782Z,8.88
2022-10-28T16:54:57.422Z,9.15
2022-10-28T16:59:51.444Z,9.43
2022-10-28T17:02:33.970Z,9.50
2022-10-28T17:05:01.194Z,9.45
2022-10-28T17:07:29.030Z,9.25
2022-10-28T17:09:56.935Z,9.15
2022-10-28T17:12:26.295Z,7.93
2022-10-28T17:14:53.158Z,10.07
2022-10-28T17:17:20.412Z,9.25
2022-10-28T17:19:47.173Z,10.05
2022-10-28T17:22:13.971Z,8.63
2022-10-28T17:24:40.731Z,9.07
2022-10-28T17:27:07.981Z,11.02
2022-10-28T17:29:38.538Z,9.35
2022-10-28T17:34:33.469Z,9.63
2022-10-28T17:37:00.136Z,9.57
2022-10-28T17:39:26.860Z,8.35
2022-10-28T17:41:54.058Z,8.93
2022-10-28T17:44:21.146Z,9.32
2022-10-28T17:46:51.503Z,8.82
2022-10-28T17:49:18.853Z,9.15
2022-10-28T17:51:45.533Z,8.82
2022-10-28T17:54:12.369Z,9.63
2022-10-28T17:56:41.781Z,9.95
2022-10-28T17:59:08.467Z,9.43
2022-10-28T18:01:36.327Z,8.98
2022-10-28T18:04:04.437Z,10.02
2022-10-28T18:06:31.169Z,10.02
2022-10-28T18:08:58.518Z,8.30
2022-10-28T18:11:26.498Z,9.25
2022-10-28T18:13:55.767Z,10.10
2022-10-28T18:16:25.302Z,9.27
2022-10-28T18:18:54.219Z,10.32
2022-10-28T18:21:21.611Z,9.15
2022-10-28T18:23:57.036Z,9.80
2022-10-28T18:26:23.697Z,9.07
2022-10-28T18:28:50.398Z,9.05
2022-10-28T18:31:19.786Z,9.77
2022-10-28T18:33:47.656Z,10.48
2022-10-28T18:36:15.700Z,9.27
2022-10-28T18:38:42.457Z,9.70
2022-10-28T18:41:13.435Z,9.07
2022-10-28T18:43:40.946Z,10.25
2022-10-28T18:46:08.544Z,9.63
2022-10-28T18:48:35.717Z,9.85
2022-10-28T18:51:07.753Z,9.73
2022-10-28T18:53:36.988Z,9.40
2022-10-28T18:56:06.151Z,10.23
2022-10-28T18:58:33.362Z,9.15
2022-10-28T19:01:09.274Z,8.80
2022-10-28T19:03:36.676Z,8.77
2022-10-28T19:06:14.748Z,9.40
2022-10-28T19:08:41.877Z,10.07
2022-10-28T19:11:10.876Z,8.93
2022-10-28T19:13:40.623Z,8.20
2022-10-28T19:16:08.873Z,9.87
2022-10-28T19:18:38.174Z,10.70
2022-10-28T19:21:08.189Z,9.02
2022-10-28T19:23:34.958Z,9.68
2022-10-28T19:26:01.788Z,8.80
2022-10-28T19:28:28.630Z,9.73
2022-10-28T19:31:07.341Z,9.43
2022-10-28T19:33:34.179Z,9.75
2022-10-28T19:36:22.067Z,9.02
2022-10-28T19:38:50.711Z,10.48
2022-10-28T19:41:20.075Z,11.00
2022-10-28T19:43:47.518Z,10.27
2022-10-28T19:46:19.345Z,12.05
2022-10-28T19:48:50.842Z,11.07
2022-10-28T19:51:23.437Z,10.07
2022-10-28T19:53:52.523Z,9.48
2022-10-28T19:56:20.441Z,10.90
2022-10-28T19:58:49.569Z,11.25
2022-10-28T20:01:17.440Z,9.25
2022-10-28T20:03:49.025Z,10.70
2022-10-28T20:06:17.463Z,10.27
2022-10-28T20:08:49.499Z,9.27
2022-10-28T20:11:21.332Z,10.32
2022-10-28T20:14:13.128Z,9.77
2022-10-28T20:16:42.630Z,9.85
2022-10-28T20:19:10.208Z,9.80
2022-10-28T20:21:38.116Z,10.73
2022-10-28T20:24:06.742Z,10.00
2022-10-28T20:26:35.817Z,8.77
2022-10-28T20:29:03.155Z,8.90
2022-10-28T20:31:31.728Z,9.35
2022-10-28T20:34:01.462Z,9.57
2022-10-28T20:36:29.133Z,9.05
2022-10-28T20:38:57.779Z,9.93
2022-10-28T20:41:26.332Z,9.32
2022-10-28T20:43:53.957Z,9.05
2022-10-28T20:46:21.483Z,10.10
2022-10-28T20:48:49.058Z,9.63
2022-10-28T20:51:16.365Z,9.35
2022-10-28T20:53:43.110Z,11.02
2022-10-28T20:56:17.008Z,10.60
2022-10-28T20:58:43.783Z,9.40
2022-10-28T21:01:21.036Z,10.00
2022-10-28T21:03:49.127Z,8.88
2022-10-28T21:06:17.084Z,9.55
2022-10-28T21:08:43.860Z,9.57
2022-10-28T21:11:13.527Z,8.45
2022-10-28T21:13:40.836Z,9.85
2022-10-28T21:16:09.826Z,9.98
2022-10-28T21:18:38.366Z,10.15
2022-10-28T21:21:05.765Z,9.70
2022-10-28T21:23:32.867Z,10.20
2022-10-28T21:26:02.007Z,8.68
2022-10-28T21:28:30.810Z,10.07
2022-10-28T21:31:06.641Z,9.00
2022-10-28T21:33:35.518Z,8.75
2022-10-28T21:36:04.790Z,9.27
2022-10-28T21:38:31.531Z,9.13
2022-10-28T21:41:07.152Z,9.07
2022-10-28T21:43:36.056Z,9.10
2022-10-28T21:46:03.200Z,9.98
2022-10-28T21:48:31.302Z,9.90
2022-10-28T21:51:00.222Z,10.35
2022-10-28T21:53:27.801Z,9.70
2022-10-28T21:56:05.625Z,9.57
2022-10-28T21:58:34.978Z,9.85
2022-10-28T22:01:03.913Z,10.38
2022-10-28T22:03:30.618Z,8.65
2022-10-28T22:05:57.353Z,8.98
2022-10-28T22:08:25.350Z,9.63
2022-10-28T22:11:00.128Z,10.27
2022-10-28T22:13:27.230Z,9.93
2022-10-28T22:16:01.173Z,9.77
2022-10-28T22:18:29.259Z,9.77
2022-10-28T22:20:56.994Z,9.10
2022-10-28T22:23:23.777Z,8.82
2022-10-28T22:25:50.572Z,9.55
2022-10-28T22:28:17.227Z,9.35
2022-10-28T22:30:43.978Z,8.70
2022-10-28T22:33:10.704Z,9.43
2022-10-28T22:35:37.446Z,10.00
2022-10-28T22:38:04.338Z,10.27
2022-10-28T22:40:31.211Z,10.23
2022-10-28T22:42:57.916Z,9.40
2022-10-28T22:45:24.572Z,9.75
2022-10-28T22:47:51.337Z,10.07
2022-10-28T22:50:18.058Z,9.40
2022-10-28T22:52:44.707Z,9.07
2022-10-28T22:55:11.533Z,9.73
2022-10-28T22:57:38.331Z,10.55
2022-10-28T23:00:05.552Z,9.20
2022-10-28T23:02:32.507Z,9.77
2022-10-28T23:04:59.308Z,10.18
2022-10-28T23:07:26.069Z,9.57
2022-10-28T23:09:52.734Z,11.48
2022-10-28T23:12:19.566Z,10.82
2022-10-28T23:14:46.311Z,9.27
2022-10-28T23:17:12.974Z,10.52
2022-10-28T23:19:39.758Z,11.05
2022-10-28T23:22:06.469Z,9.27
2022-10-28T23:24:33.206Z,10.00
2022-10-28T23:26:59.895Z,10.10
2022-10-28T23:29:26.641Z,9.18
2022-10-28T23:31:53.332Z,9.98
2022-10-28T23:34:20.022Z,10.98
2022-10-28T23:36:46.714Z,10.40
2022-10-28T23:39:13.388Z,10.88
2022-10-28T23:41:40.140Z,10.20
2022-10-28T23:44:06.818Z,9.75
2022-10-28T23:46:36.667Z,12.85
2022-10-28T23:49:04.451Z,10.48
2022-10-28T23:51:31.282Z,10.00
2022-10-28T23:53:59.839Z,9.65
2022-10-28T23:56:26.532Z,11.23
2022-10-28T23:58:53.208Z,9.73
